createdAt,value
2023-04-15T00:02:21.449Z,11.55
2023-04-15T00:04:49.851Z,11.20
2023-04-15T00:07:19.210Z,11.30
2023-04-15T00:09:47.047Z,9.45
2023-04-15T00:12:14.883Z,8.55
2023-04-15T00:14:42.770Z,9.27
2023-04-15T00:17:10.589Z,9.55
2023-04-15T00:19:38.538Z,9.43
2023-04-15T00:22:06.351Z,8.05
2023-04-15T00:24:35.500Z,9.23
2023-04-15T00:27:03.607Z,10.35
2023-04-15T00:29:31.862Z,8.13
2023-04-15T00:31:59.638Z,8.98
2023-04-15T00:34:28.874Z,14.38
2023-04-15T00:36:56.757Z,7.32
2023-04-15T00:39:24.565Z,9.90
2023-04-15T00:41:54.358Z,9.50
2023-04-15T00:44:22.501Z,8.43
2023-04-15T00:46:52.986Z,9.40
2023-04-15T00:49:20.861Z,6.75
2023-04-15T00:51:49.039Z,6.85
2023-04-15T00:54:17.278Z,8.55
2023-04-15T00:56:45.191Z,8.55
2023-04-15T00:59:15.732Z,8.38
2023-04-15T01:01:45.274Z,8.77
2023-04-15T01:04:13.328Z,9.18
2023-04-15T01:06:41.599Z,9.30
2023-04-15T01:09:09.578Z,8.15
2023-04-15T01:11:39.885Z,12.43
2023-04-15T01:14:10.352Z,9.30
2023-04-15T01:16:41.124Z,7.38
2023-04-15T01:19:12.022Z,9.90
2023-04-15T01:21:40.963Z,10.00
2023-04-15T01:24:11.646Z,10.45
2023-04-15T01:26:43.502Z,9.02
2023-04-15T01:29:12.302Z,9.30
2023-04-15T01:31:40.586Z,8.82
2023-04-15T01:34:08.440Z,7.97
2023-04-15T01:36:36.774Z,10.13
2023-04-15T01:39:05.619Z,9.32
2023-04-15T01:41:33.536Z,8.35
2023-04-15T01:44:02.739Z,10.77
2023-04-15T01:46:30.709Z,9.27
2023-04-15T01:48:58.670Z,9.80
2023-04-15T01:51:27.257Z,6.97
2023-04-15T01:53:56.858Z,10.43
2023-04-15T01:56:25.363Z,9.68
2023-04-15T01:58:53.665Z,10.25
2023-04-15T02:01:23.338Z,8.00
2023-04-15T02:03:52.210Z,7.90
2023-04-15T02:06:20.089Z,8.32
2023-04-15T02:08:49.367Z,9.25
2023-04-15T02:11:17.444Z,10.45
2023-04-15T02:13:45.294Z,10.60
2023-04-15T02:16:20.658Z,8.77
2023-04-15T02:18:49.884Z,10.70
2023-04-15T02:21:18.919Z,11.95
2023-04-15T02:23:48.279Z,8.25
2023-04-15T02:26:16.221Z,8.63
2023-04-15T02:28:43.987Z,8.23
2023-04-15T02:31:14.886Z,11.05
2023-04-15T02:33:42.720Z,8.65
2023-04-15T02:36:12.399Z,10.23
2023-04-15T02:38:42.372Z,12.80
2023-04-15T02:41:10.542Z,10.35
2023-04-15T02:43:39.993Z,8.13
2023-04-15T02:46:12.832Z,10.38
2023-04-15T02:48:40.672Z,10.13
2023-04-15T02:51:15.804Z,10.95
2023-04-15T02:53:44.133Z,13.93
2023-04-15T02:56:12.537Z,10.13
2023-04-15T02:58:41.236Z,11.13
2023-04-15T03:01:09.488Z,8.50
2023-04-15T03:03:38.309Z,9.05
2023-04-15T03:06:06.564Z,10.88
2023-04-15T03:08:36.590Z,11.32
2023-04-15T03:11:04.968Z,9.63
2023-04-15T03:13:34.117Z,7.30
2023-04-15T03:16:09.654Z,8.70
2023-04-15T03:18:38.394Z,9.50
2023-04-15T03:21:06.721Z,9.90
2023-04-15T03:23:38.284Z,10.57
2023-04-15T03:26:06.832Z,11.38
2023-04-15T03:28:35.165Z,10.30
2023-04-15T03:31:03.488Z,14.80
2023-04-15T03:33:31.828Z,15.27
2023-04-15T03:35:59.677Z,10.63
2023-04-15T03:38:27.935Z,8.23
2023-04-15T03:40:57.048Z,9.50
2023-04-15T03:43:24.834Z,11.93
2023-04-15T03:45:52.629Z,9.60
2023-04-15T03:48:20.577Z,10.40
2023-04-15T03:50:48.386Z,9.50
2023-04-15T03:53:16.428Z,8.20
2023-04-15T03:55:44.766Z,8.85
2023-04-15T03:58:13.944Z,23.25
2023-04-15T04:00:42.498Z,18.85
2023-04-15T04:03:10.453Z,12.63
2023-04-15T04:05:39.043Z,8.80
2023-04-15T04:08:07.516Z,11.52
2023-04-15T04:10:35.339Z,12.15
2023-04-15T04:13:03.309Z,9.95
2023-04-15T04:15:32.497Z,11.60
2023-04-15T04:18:00.827Z,10.43
2023-04-15T04:20:28.696Z,12.32
2023-04-15T04:22:56.618Z,7.43
2023-04-15T04:25:24.505Z,9.85
2023-04-15T04:27:52.477Z,11.52
2023-04-15T04:30:20.397Z,11.20
2023-04-15T04:32:51.137Z,9.57
2023-04-15T04:35:18.958Z,11.65
2023-04-15T04:37:46.818Z,10.70
2023-04-15T04:40:14.892Z,13.50
2023-04-15T04:42:42.791Z,11.05
2023-04-15T04:45:11.220Z,9.68
2023-04-15T04:47:39.088Z,9.00
2023-04-15T04:50:10.275Z,7.97
2023-04-15T04:52:38.137Z,10.20
2023-04-15T04:55:08.520Z,12.50
2023-04-15T04:57:37.685Z,10.43
2023-04-15T05:00:07.152Z,11.85
2023-04-15T05:02:35.264Z,13.43
2023-04-15T05:05:03.237Z,14.43
2023-04-15T05:07:32.666Z,10.18
2023-04-15T05:10:01.013Z,11.38
2023-04-15T05:12:28.865Z,9.60
2023-04-15T05:14:56.701Z,10.60
2023-04-15T05:17:24.708Z,9.75
2023-04-15T05:19:53.793Z,9.98
2023-04-15T05:22:21.679Z,10.23
2023-04-15T05:24:50.868Z,9.15
2023-04-15T05:27:19.139Z,10.63
2023-04-15T05:29:47.010Z,13.18
2023-04-15T05:32:15.108Z,11.77
2023-04-15T05:34:42.944Z,13.90
2023-04-15T05:37:10.870Z,9.95
2023-04-15T05:39:38.718Z,8.65
2023-04-15T05:42:08.100Z,10.05
2023-04-15T05:44:36.119Z,10.15
2023-04-15T05:47:05.853Z,10.50
2023-04-15T05:49:33.894Z,9.90
2023-04-15T05:52:01.804Z,9.63
2023-04-15T05:54:29.574Z,8.52
2023-04-15T05:56:57.600Z,7.90
2023-04-15T05:59:27.131Z,9.70
2023-04-15T06:01:55.055Z,7.80
2023-04-15T06:04:23.076Z,7.78
2023-04-15T06:06:51.284Z,5.63
2023-04-15T06:09:19.065Z,6.75
2023-04-15T06:11:46.875Z,7.65
2023-04-15T06:14:14.709Z,7.57
2023-04-15T06:16:44.132Z,5.95
2023-04-15T06:19:12.395Z,7.45
2023-04-15T06:21:40.548Z,6.97
2023-04-15T06:24:08.601Z,6.57
2023-04-15T06:26:36.437Z,10.88
2023-04-15T06:29:04.337Z,7.05
2023-04-15T06:31:32.287Z,9.27
2023-04-15T06:34:01.593Z,7.40
2023-04-15T06:36:29.586Z,7.65
2023-04-15T06:38:57.631Z,7.25
2023-04-15T06:41:26.049Z,6.90
2023-04-15T06:43:53.953Z,8.07
2023-04-15T06:46:22.236Z,7.18
2023-04-15T06:48:50.467Z,6.50
2023-04-15T06:51:19.827Z,6.55
2023-04-15T06:53:47.603Z,8.50
2023-04-15T06:56:15.865Z,6.80
2023-04-15T06:58:43.767Z,5.72
2023-04-15T07:01:11.771Z,6.63
2023-04-15T07:03:39.738Z,8.07
2023-04-15T07:06:08.759Z,7.20
2023-04-15T07:08:38.149Z,7.43
2023-04-15T07:11:06.180Z,7.07
2023-04-15T07:13:34.163Z,6.13
2023-04-15T07:16:02.366Z,7.63
2023-04-15T07:18:30.499Z,5.78
2023-04-15T07:20:58.367Z,4.78
2023-04-15T07:23:26.266Z,6.85
2023-04-15T07:25:55.787Z,6.28
2023-04-15T07:28:23.677Z,8.93
2023-04-15T07:30:51.652Z,10.57
2023-04-15T07:33:19.622Z,5.28
2023-04-15T07:35:47.585Z,5.50
2023-04-15T07:38:15.641Z,11.15
2023-04-15T07:40:43.626Z,8.73
2023-04-15T07:43:13.645Z,7.30
2023-04-15T07:45:41.707Z,5.63
2023-04-15T07:48:09.595Z,6.30
2023-04-15T07:50:38.048Z,10.63
2023-04-15T07:53:07.222Z,8.07
2023-04-15T07:55:35.069Z,6.65
2023-04-15T07:58:02.957Z,6.30
2023-04-15T08:00:32.280Z,6.70
2023-04-15T08:03:00.389Z,6.47
2023-04-15T08:05:28.751Z,6.07
2023-04-15T08:07:57.294Z,6.28
2023-04-15T08:10:25.190Z,6.57
2023-04-15T08:12:54.328Z,6.47
2023-04-15T08:15:22.572Z,6.95
2023-04-15T08:17:51.796Z,5.68
2023-04-15T08:20:19.947Z,5.70
2023-04-15T08:22:51.818Z,4.38
2023-04-15T08:25:20.463Z,4.88
2023-04-15T08:27:48.432Z,3.38
2023-04-15T08:30:16.418Z,4.38
2023-04-15T08:32:47.539Z,5.95
2023-04-15T08:35:16.933Z,4.50
2023-04-15T08:37:44.815Z,3.53
2023-04-15T08:40:13.569Z,2.78
2023-04-15T08:42:50.170Z,3.08
2023-04-15T08:45:19.252Z,2.67
2023-04-15T08:47:49.348Z,4.40
2023-04-15T08:50:19.738Z,5.30
2023-04-15T08:52:47.927Z,4.63
2023-04-15T08:55:17.287Z,3.10
2023-04-15T08:57:45.351Z,2.10
2023-04-15T09:00:15.000Z,4.70
2023-04-15T09:02:44.061Z,2.72
2023-04-15T09:05:12.251Z,4.43
2023-04-15T09:07:41.942Z,2.60
2023-04-15T09:10:11.043Z,1.67
2023-04-15T09:12:38.907Z,3.22
2023-04-15T09:15:07.967Z,2.17
2023-04-15T09:17:36.026Z,1.80
2023-04-15T09:20:11.266Z,1.92
2023-04-15T09:25:27.535Z,1.20
2023-04-15T09:27:57.485Z,3.67
2023-04-15T09:30:25.915Z,2.17
2023-04-15T09:32:54.873Z,3.72
2023-04-15T09:35:24.043Z,1.58
2023-04-15T09:37:52.453Z,1.65
2023-04-15T09:40:34.620Z,3.45
2023-04-15T09:43:03.140Z,4.90
2023-04-15T09:45:31.045Z,2.38
2023-04-15T09:47:59.914Z,1.90
2023-04-15T09:50:29.987Z,1.75
2023-04-15T09:52:58.062Z,3.10
2023-04-15T09:55:26.291Z,3.50
2023-04-15T09:57:57.690Z,1.20
2023-04-15T10:00:28.680Z,2.22
2023-04-15T10:02:57.381Z,2.83
2023-04-15T10:05:29.836Z,3.05
2023-04-15T10:07:58.625Z,4.78
2023-04-15T10:10:26.668Z,4.53
2023-04-15T10:12:56.279Z,3.50
2023-04-15T10:15:25.526Z,1.98
2023-04-15T10:17:55.798Z,2.28
2023-04-15T10:20:24.421Z,2.80
2023-04-15T10:22:54.013Z,3.53
2023-04-15T10:25:23.469Z,6.32
2023-04-15T10:27:52.871Z,2.75
2023-04-15T10:30:23.212Z,4.10
2023-04-15T10:32:51.640Z,6.47
2023-04-15T10:35:21.661Z,3.03
2023-04-15T10:37:49.464Z,2.38
2023-04-15T10:40:27.287Z,2.17
2023-04-15T10:42:57.096Z,2.35
2023-04-15T10:45:28.695Z,3.40
2023-04-15T10:47:57.404Z,4.10
2023-04-15T10:50:28.157Z,3.75
2023-04-15T10:52:57.442Z,3.25
2023-04-15T10:55:27.417Z,2.28
2023-04-15T10:57:59.289Z,3.55
2023-04-15T11:00:31.040Z,4.82
2023-04-15T11:03:00.764Z,4.93
2023-04-15T11:05:53.130Z,6.55
2023-04-15T11:08:21.730Z,4.13
2023-04-15T11:10:54.693Z,4.13
2023-04-15T11:13:29.237Z,3.03
2023-04-15T11:16:03.325Z,4.05
2023-04-15T11:18:38.064Z,2.97
2023-04-15T11:21:07.818Z,3.13
2023-04-15T11:23:38.577Z,3.10
2023-04-15T11:26:09.545Z,5.32
2023-04-15T11:28:39.175Z,4.13
2023-04-15T11:31:11.261Z,3.60
2023-04-15T11:33:54.589Z,3.45
2023-04-15T11:36:22.505Z,3.08
2023-04-15T11:38:50.458Z,2.20
2023-04-15T11:41:22.109Z,2.15
2023-04-15T11:43:50.163Z,1.92
2023-04-15T11:46:19.752Z,3.35
2023-04-15T11:48:48.430Z,2.38
2023-04-15T11:51:16.408Z,2.33
2023-04-15T11:53:46.428Z,2.92
2023-04-15T11:56:19.561Z,2.97
2023-04-15T11:58:47.809Z,2.67
2023-04-15T12:01:15.579Z,3.90
2023-04-15T12:03:47.297Z,2.20
2023-04-15T12:06:19.092Z,3.20
2023-04-15T12:08:58.423Z,2.20
2023-04-15T12:11:41.408Z,2.10
2023-04-15T12:14:25.694Z,2.47
2023-04-15T12:16:58.368Z,2.35
2023-04-15T12:19:29.765Z,2.17
2023-04-15T12:22:01.124Z,2.10
2023-04-15T12:24:29.308Z,2.67
2023-04-15T12:27:02.719Z,2.17
2023-04-15T12:29:31.572Z,2.70
2023-04-15T12:32:01.332Z,2.90
2023-04-15T12:34:32.984Z,3.00
2023-04-15T12:37:03.345Z,2.70
2023-04-15T12:39:33.055Z,3.00
2023-04-15T12:42:01.491Z,3.65
2023-04-15T12:44:30.113Z,4.63
2023-04-15T12:46:58.640Z,3.60
2023-04-15T12:49:27.389Z,2.78
2023-04-15T12:52:00.681Z,12.57
2023-04-15T12:54:28.985Z,6.28
2023-04-15T12:56:57.639Z,12.40
2023-04-15T12:59:25.945Z,3.42
2023-04-15T13:01:54.725Z,13.90
2023-04-15T13:04:23.302Z,3.90
2023-04-15T13:06:51.340Z,4.03
2023-04-15T13:09:20.594Z,9.27
2023-04-15T13:11:48.448Z,3.70
2023-04-15T13:14:16.393Z,7.18
2023-04-15T13:16:44.182Z,3.20
2023-04-15T13:19:11.984Z,4.60
2023-04-15T13:21:39.890Z,5.15
2023-04-15T13:24:08.579Z,3.63
2023-04-15T13:26:38.029Z,4.68
2023-04-15T13:29:06.029Z,4.22
2023-04-15T13:31:33.845Z,4.60
2023-04-15T13:34:01.852Z,6.95
2023-04-15T13:36:29.777Z,5.28
2023-04-15T13:38:58.360Z,5.65
2023-04-15T13:41:26.319Z,5.15
2023-04-15T13:43:55.702Z,5.32
2023-04-15T13:46:23.530Z,4.90
2023-04-15T13:48:51.344Z,5.95
2023-04-15T13:51:19.129Z,5.40
2023-04-15T13:53:46.959Z,5.40
2023-04-15T13:56:14.822Z,6.00
2023-04-15T13:58:42.724Z,6.50
2023-04-15T14:01:11.993Z,6.18
2023-04-15T14:03:40.111Z,7.18
2023-04-15T14:06:08.329Z,7.90
2023-04-15T14:08:36.402Z,8.73
2023-04-15T14:11:04.641Z,6.88
2023-04-15T14:13:33.485Z,9.32
2023-04-15T14:16:01.481Z,6.05
2023-04-15T14:18:30.922Z,7.07
2023-04-15T14:20:58.691Z,8.02
2023-04-15T14:23:26.727Z,6.60
2023-04-15T14:25:54.619Z,8.88
2023-04-15T14:28:22.464Z,11.02
2023-04-15T14:30:50.373Z,6.97
2023-04-15T14:33:18.452Z,7.20
2023-04-15T14:35:48.278Z,8.38
2023-04-15T14:38:16.217Z,7.00
2023-04-15T14:40:44.715Z,7.75
2023-04-15T14:43:12.857Z,8.55
2023-04-15T14:45:43.629Z,8.05
2023-04-15T14:48:13.853Z,7.90
2023-04-15T14:50:42.179Z,7.75
2023-04-15T14:53:11.303Z,8.60
2023-04-15T14:55:39.137Z,6.53
2023-04-15T14:58:08.149Z,7.13
2023-04-15T15:00:39.208Z,6.15
2023-04-15T15:03:12.598Z,5.32
2023-04-15T15:05:41.154Z,6.10
2023-04-15T15:08:09.662Z,5.50
2023-04-15T15:10:48.085Z,6.93
2023-04-15T15:13:16.974Z,8.23
2023-04-15T15:15:44.901Z,5.85
2023-04-15T15:18:12.791Z,6.93
2023-04-15T15:20:40.836Z,6.80
2023-04-15T15:23:08.729Z,6.72
2023-04-15T15:25:38.040Z,8.13
2023-04-15T15:28:06.291Z,6.40
2023-04-15T15:30:34.151Z,6.93
2023-04-15T15:33:02.102Z,8.50
2023-04-15T15:35:30.178Z,6.00
2023-04-15T15:37:58.111Z,6.53
2023-04-15T15:40:26.140Z,11.23
2023-04-15T15:42:55.524Z,7.28
2023-04-15T15:45:23.390Z,14.23
2023-04-15T15:47:51.363Z,15.63
2023-04-15T15:50:19.331Z,10.50
2023-04-15T15:52:47.286Z,9.00
2023-04-15T15:55:15.340Z,8.00
2023-04-15T15:57:43.145Z,9.90
2023-04-15T16:00:13.882Z,7.20
2023-04-15T16:05:12.885Z,5.60
2023-04-15T16:07:40.749Z,6.22
2023-04-15T16:10:09.865Z,5.47
2023-04-15T16:12:37.712Z,6.82
2023-04-15T16:15:06.456Z,7.03
2023-04-15T16:17:36.286Z,5.90
2023-04-15T16:20:05.922Z,6.35
2023-04-15T16:22:34.277Z,5.38
2023-04-15T16:25:02.335Z,4.38
2023-04-15T16:27:30.367Z,5.13
2023-04-15T16:29:59.373Z,6.68
2023-04-15T16:32:27.517Z,6.65
2023-04-15T16:34:56.793Z,6.05
2023-04-15T16:37:24.627Z,5.10
2023-04-15T16:39:52.412Z,4.53
2023-04-15T16:42:20.364Z,5.68
2023-04-15T16:44:48.219Z,4.25
2023-04-15T16:47:16.440Z,5.40
2023-04-15T16:49:44.298Z,5.95
2023-04-15T16:52:13.523Z,4.55
2023-04-15T16:54:41.672Z,5.38
2023-04-15T16:57:09.765Z,6.10
2023-04-15T16:59:37.589Z,5.90
2023-04-15T17:02:05.513Z,5.53
2023-04-15T17:04:34.896Z,4.82
2023-04-15T17:07:02.880Z,5.45
2023-04-15T17:09:32.139Z,5.15
2023-04-15T17:11:59.966Z,5.10
2023-04-15T17:14:29.451Z,6.95
2023-04-15T17:16:57.487Z,6.57
2023-04-15T17:19:26.710Z,6.43
2023-04-15T17:21:55.159Z,7.65
2023-04-15T17:24:23.157Z,10.65
2023-04-15T17:26:52.396Z,9.27
2023-04-15T17:29:20.246Z,8.43
2023-04-15T17:31:48.306Z,10.45
2023-04-15T17:34:16.315Z,8.23
2023-04-15T17:36:44.232Z,9.18
2023-04-15T17:39:14.013Z,8.27
2023-04-15T17:41:41.976Z,7.68
2023-04-15T17:44:11.150Z,6.35
2023-04-15T17:46:39.035Z,7.25
2023-04-15T17:49:07.121Z,8.30
2023-04-15T17:51:35.154Z,9.63
2023-04-15T17:54:08.662Z,10.60
2023-04-15T17:56:36.580Z,8.77
2023-04-15T17:59:04.400Z,7.70
2023-04-15T18:01:33.630Z,10.05
2023-04-15T18:04:01.849Z,9.25
2023-04-15T18:06:29.955Z,8.95
2023-04-15T18:08:58.966Z,9.27
2023-04-15T18:11:27.346Z,9.43
2023-04-15T18:13:55.211Z,9.98
2023-04-15T18:16:23.307Z,11.45
2023-04-15T18:18:52.870Z,11.30
2023-04-15T18:21:20.913Z,12.57
2023-04-15T18:23:48.948Z,12.80
2023-04-15T18:26:16.810Z,11.07
2023-04-15T18:28:44.819Z,12.90
2023-04-15T18:31:12.677Z,12.25
2023-04-15T18:33:40.630Z,13.32
2023-04-15T18:36:11.063Z,13.52
2023-04-15T18:38:38.932Z,14.02
2023-04-15T18:41:08.807Z,11.40
2023-04-15T18:43:37.783Z,10.13
2023-04-15T18:46:10.206Z,11.80
2023-04-15T18:48:38.132Z,11.05
2023-04-15T18:51:05.969Z,12.63
2023-04-15T18:53:35.273Z,15.13
2023-04-15T18:56:03.437Z,9.90
2023-04-15T18:59:09.958Z,12.90
2023-04-15T19:01:19.323Z,10.63
2023-04-15T19:03:47.379Z,11.05
2023-04-15T19:06:15.375Z,11.73
2023-04-15T19:08:44.588Z,10.27
2023-04-15T19:11:12.578Z,13.63
2023-04-15T19:13:40.568Z,13.48
2023-04-15T19:16:08.458Z,13.00
2023-04-15T19:18:36.464Z,15.38
2023-04-15T19:21:04.492Z,17.75
2023-04-15T19:23:32.852Z,16.30
2023-04-15T19:26:02.276Z,17.45
2023-04-15T19:28:30.348Z,18.30
2023-04-15T19:30:58.968Z,15.30
2023-04-15T19:33:31.110Z,17.33
2023-04-15T19:35:59.336Z,14.75
2023-04-15T19:38:27.537Z,15.73
2023-04-15T19:40:55.506Z,12.13
2023-04-15T19:43:25.048Z,13.38
2023-04-15T19:45:54.638Z,16.17
2023-04-15T19:48:24.245Z,13.32
2023-04-15T19:50:52.127Z,15.75
2023-04-15T19:53:19.923Z,14.30
2023-04-15T19:55:48.493Z,14.23
2023-04-15T19:58:16.608Z,14.85
2023-04-15T20:00:46.525Z,13.57
2023-04-15T20:03:14.951Z,16.02
2023-04-15T20:05:43.390Z,16.50
2023-04-15T20:08:11.370Z,13.63
2023-04-15T20:10:39.406Z,14.68
2023-04-15T20:13:07.206Z,14.05
2023-04-15T20:15:35.143Z,17.95
2023-04-15T20:18:04.357Z,16.73
2023-04-15T20:20:32.293Z,17.58
2023-04-15T20:23:00.141Z,15.43
2023-04-15T20:25:28.165Z,18.05
2023-04-15T20:27:56.779Z,16.92
2023-04-15T20:30:24.609Z,15.18
2023-04-15T20:32:52.544Z,14.85
2023-04-15T20:35:21.783Z,15.50
2023-04-15T20:37:50.447Z,18.52
2023-04-15T20:40:19.405Z,16.73
2023-04-15T20:42:47.599Z,16.67
2023-04-15T20:45:15.506Z,17.23
2023-04-15T20:47:43.876Z,17.42
2023-04-15T20:50:12.762Z,21.27
2023-04-15T20:52:41.929Z,17.73
2023-04-15T20:55:10.456Z,21.27
2023-04-15T20:57:38.340Z,21.52
2023-04-15T21:00:09.378Z,19.85
2023-04-15T21:02:37.510Z,21.80
2023-04-15T21:05:06.091Z,18.85
2023-04-15T21:07:33.982Z,22.25
2023-04-15T21:10:03.292Z,23.45
2023-04-15T21:12:31.174Z,23.60
2023-04-15T21:14:59.009Z,21.05
2023-04-15T21:17:26.985Z,22.65
2023-04-15T21:19:54.899Z,22.13
2023-04-15T21:22:22.890Z,20.10
2023-04-15T21:24:50.910Z,26.27
2023-04-15T21:27:20.264Z,22.67
2023-04-15T21:29:48.222Z,21.90
2023-04-15T21:32:16.531Z,23.95
2023-04-15T21:34:44.443Z,23.00
2023-04-15T21:37:12.636Z,23.90
2023-04-15T21:39:40.778Z,23.38
2023-04-15T21:42:08.639Z,23.45
2023-04-15T21:44:38.012Z,19.38
2023-04-15T21:47:05.936Z,19.83
2023-04-15T21:49:33.985Z,22.10
2023-04-15T21:52:01.805Z,17.05
2023-04-15T21:54:31.062Z,22.08
2023-04-15T21:56:58.846Z,21.05
2023-04-15T21:59:27.248Z,22.00
2023-04-15T22:01:56.640Z,21.20
2023-04-15T22:04:24.916Z,22.38
2023-04-15T22:06:55.659Z,19.20
2023-04-15T22:09:23.619Z,22.05
2023-04-15T22:11:51.499Z,20.90
2023-04-15T22:14:19.303Z,26.52
2023-04-15T22:16:47.284Z,20.42
2023-04-15T22:19:16.626Z,21.13
2023-04-15T22:21:44.578Z,21.25
2023-04-15T22:24:32.593Z,26.83
2023-04-15T22:27:00.577Z,23.20
2023-04-15T22:29:28.468Z,23.90
2023-04-15T22:31:56.421Z,28.55
2023-04-15T22:34:25.773Z,25.73
2023-04-15T22:36:53.881Z,27.60
2023-04-15T22:39:21.910Z,28.40
2023-04-15T22:41:50.779Z,28.33
2023-04-15T22:44:18.666Z,29.85
2023-04-15T22:46:46.514Z,35.05
2023-04-15T22:49:14.377Z,31.48
2023-04-15T22:51:44.363Z,29.52
2023-04-15T22:54:12.769Z,34.83
2023-04-15T22:56:40.827Z,30.77
2023-04-15T22:59:08.874Z,31.42
2023-04-15T23:01:38.116Z,29.25
2023-04-15T23:04:09.431Z,32.22
2023-04-15T23:06:53.001Z,30.58
2023-04-15T23:09:21.641Z,31.42
2023-04-15T23:11:54.724Z,28.65
2023-04-15T23:14:22.562Z,28.85
2023-04-15T23:16:50.412Z,29.55
2023-04-15T23:19:18.204Z,30.55
2023-04-15T23:21:46.584Z,29.95
2023-04-15T23:24:15.917Z,26.38
2023-04-15T23:26:43.979Z,32.72
2023-04-15T23:29:12.015Z,38.45
2023-04-15T23:31:41.422Z,33.90
2023-04-15T23:34:09.480Z,32.90
2023-04-15T23:36:37.311Z,30.98
2023-04-15T23:39:05.193Z,32.53
2023-04-15T23:41:34.362Z,37.15
2023-04-15T23:44:02.204Z,33.03
2023-04-15T23:46:30.100Z,37.83
2023-04-15T23:48:58.127Z,37.17
2023-04-15T23:51:25.940Z,34.10
2023-04-15T23:53:53.801Z,34.80
2023-04-15T23:56:21.776Z,34.05
2023-04-15T23:58:50.995Z,32.38
